Time;durP1;ratioP1;P1;durP2;ratioP2;P2;SDS_P1;SDS_P2;PMS_P1;PMS_P2;Temp;Humidity;BMP_temperature;BMP_pressure;BME280_temperature;BME280_humidity;BME280_pressure;Samples;Min_cycle;Max_cycle;Signal;HPM_P1;HPM_P2
2023/08/30 00:00:17;;;;;;;7.78;3.58;;;16.20;99.90;;;;;;4901310;29;20108;-71
2023/08/30 00:02:46;;;;;;;4.80;3.40;;;16.20;99.90;;;;;;4898129;29;20099;-71
2023/08/30 00:05:11;;;;;;;6.68;3.90;;;16.20;99.90;;;;;;4898364;29;20044;-71
2023/08/30 00:07:37;;;;;;;4.20;3.50;;;16.20;99.90;;;;;;4902873;29;20032;-71
2023/08/30 00:10:03;;;;;;;5.70;3.42;;;16.20;99.90;;;;;;4901719;29;20055;-71
2023/08/30 00:12:29;;;;;;;6.18;3.92;;;16.10;99.90;;;;;;4900632;29;20436;-71
2023/08/30 00:14:55;;;;;;;5.18;3.55;;;16.00;99.90;;;;;;4900151;29;20472;-71
2023/08/30 00:17:20;;;;;;;5.28;3.47;;;16.00;99.90;;;;;;4897845;29;20031;-70
2023/08/30 00:19:48;;;;;;;7.60;4.22;;;16.00;99.90;;;;;;4898176;29;20064;-71
2023/08/30 00:22:14;;;;;;;6.78;4.00;;;16.00;99.90;;;;;;4901961;29;20531;-72
2023/08/30 00:24:39;;;;;;;6.32;4.28;;;16.00;99.90;;;;;;4898207;29;20055;-71
2023/08/30 00:27:05;;;;;;;5.28;4.13;;;16.00;99.90;;;;;;4898583;29;20472;-71
2023/08/30 00:29:30;;;;;;;6.70;4.57;;;15.90;99.90;;;;;;4899199;29;20036;-71
2023/08/30 00:31:56;;;;;;;6.25;4.50;;;16.00;99.90;;;;;;4897325;29;20036;-71
2023/08/30 00:34:22;;;;;;;7.18;4.50;;;15.90;99.90;;;;;;4884342;29;20024;-71
2023/08/30 00:36:48;;;;;;;7.88;4.90;;;15.90;99.90;;;;;;4908234;29;20032;-71
2023/08/30 00:39:14;;;;;;;6.78;4.32;;;15.90;99.90;;;;;;4899457;29;20035;-71
2023/08/30 00:41:40;;;;;;;6.68;4.85;;;15.90;99.90;;;;;;4895817;29;20072;-71
2023/08/30 00:44:05;;;;;;;8.32;4.93;;;15.90;99.90;;;;;;4896434;29;20029;-71
2023/08/30 00:46:33;;;;;;;6.88;4.57;;;16.00;99.90;;;;;;4903817;29;20055;-71
2023/08/30 00:48:59;;;;;;;6.13;4.22;;;16.00;99.90;;;;;;4901216;29;20040;-71
2023/08/30 00:51:26;;;;;;;5.80;3.92;;;16.00;99.90;;;;;;4900517;29;20087;-71
2023/08/30 00:53:52;;;;;;;6.82;4.15;;;16.00;99.90;;;;;;4899548;29;20040;-71
2023/08/30 00:56:19;;;;;;;5.53;3.80;;;16.00;99.90;;;;;;4900416;29;20075;-71
2023/08/30 00:58:45;;;;;;;5.05;3.60;;;15.90;99.90;;;;;;4905895;29;20028;-71
2023/08/30 01:01:11;;;;;;;4.88;3.58;;;15.90;99.90;;;;;;4901104;29;20292;-71
2023/08/30 01:03:37;;;;;;;5.63;3.88;;;15.80;99.90;;;;;;4894502;29;20483;-71
2023/08/30 01:06:03;;;;;;;4.15;2.97;;;15.80;99.90;;;;;;4898891;29;20064;-72
2023/08/30 01:08:29;;;;;;;3.92;2.90;;;15.70;99.90;;;;;;4902478;29;20136;-72
2023/08/30 01:11:11;;;;;;;3.72;2.75;;;15.60;99.90;;;;;;4902148;29;20042;-73
2023/08/30 01:13:52;;;;;;;4.18;2.92;;;15.50;99.90;;;;;;4905208;29;20042;-72
2023/08/30 01:16:21;;;;;;;4.63;3.03;;;15.30;99.90;;;;;;4904809;29;20210;-72
2023/08/30 01:18:47;;;;;;;3.78;2.90;;;15.20;99.90;;;;;;4904774;29;20408;-72
2023/08/30 01:21:44;;;;;;;4.47;2.72;;;15.10;99.90;;;;;;4900337;29;20024;-72
2023/08/30 01:24:22;;;;;;;3.88;2.85;;;14.90;99.90;;;;;;4902342;29;20468;-72
2023/08/30 01:27:09;;;;;;;4.15;2.88;;;14.90;99.90;;;;;;4886441;29;20044;-72
2023/08/30 01:29:40;;;;;;;6.05;3.17;;;14.90;99.90;;;;;;4898028;29;20497;-73
2023/08/30 01:32:07;;;;;;;;;;;15.00;99.90;;;;;;4905376;29;20036;-72
2023/08/30 01:34:34;;;;;;;5.13;2.78;;;15.00;99.90;;;;;;4891218;29;20736;-73
2023/08/30 01:37:01;;;;;;;4.68;2.92;;;15.10;99.90;;;;;;4890630;29;20666;-72
2023/08/30 01:39:27;;;;;;;5.38;3.05;;;15.20;99.90;;;;;;4888228;29;21681;-72
2023/08/30 01:41:58;;;;;;;4.68;2.85;;;15.20;99.90;;;;;;4903365;29;20515;-72
2023/08/30 01:44:27;;;;;;;4.95;2.60;;;15.20;99.90;;;;;;4901211;29;20050;-72
2023/08/30 01:46:53;;;;;;;4.15;2.75;;;15.20;99.90;;;;;;4904271;29;20039;-73
2023/08/30 01:49:19;;;;;;;5.70;2.70;;;15.20;99.90;;;;;;4899593;29;20420;-72
2023/08/30 01:51:45;;;;;;;5.60;2.35;;;15.20;99.90;;;;;;4899508;29;20087;-72
2023/08/30 01:54:16;;;;;;;5.93;2.85;;;15.20;99.90;;;;;;4900087;29;20032;-72
2023/08/30 01:56:42;;;;;;;4.32;2.60;;;15.10;99.90;;;;;;4901000;29;20445;-72
2023/08/30 01:59:08;;;;;;;4.40;2.67;;;15.10;99.90;;;;;;4899181;29;20036;-72
2023/08/30 02:01:34;;;;;;;6.72;3.10;;;15.00;99.90;;;;;;4898208;29;20046;-72
2023/08/30 02:04:00;;;;;;;4.97;2.78;;;15.00;99.90;;;;;;4901677;29;20028;-72
2023/08/30 02:06:48;;;;;;;3.72;2.53;;;14.90;99.90;;;;;;4900972;29;20612;-72
2023/08/30 02:09:21;;;;;;;4.82;2.47;;;14.90;99.90;;;;;;4903161;29;20280;-72
2023/08/30 02:11:49;;;;;;;3.45;2.65;;;14.90;99.90;;;;;;4900798;29;20298;-72
2023/08/30 02:14:17;;;;;;;5.05;2.80;;;14.90;99.90;;;;;;4902144;29;20027;-72
2023/08/30 02:16:45;;;;;;;3.78;2.53;;;14.90;99.90;;;;;;4903284;29;20618;-72
2023/08/30 02:19:12;;;;;;;3.95;2.58;;;14.90;99.90;;;;;;4901392;29;20180;-72
2023/08/30 02:21:39;;;;;;;3.08;2.53;;;14.80;99.90;;;;;;4898201;29;20472;-72
2023/08/30 02:24:05;;;;;;;2.63;2.25;;;14.70;99.90;;;;;;4901903;29;20039;-72
2023/08/30 02:26:31;;;;;;;3.60;2.45;;;14.60;99.90;;;;;;4899124;29;20047;-72
2023/08/30 02:28:56;;;;;;;2.53;1.98;;;14.50;99.90;;;;;;4902117;29;20035;-73
2023/08/30 02:31:22;;;;;;;4.60;2.45;;;14.40;99.90;;;;;;4889093;29;20205;-72
2023/08/30 02:33:48;;;;;;;3.33;2.30;;;14.40;99.90;;;;;;4885482;29;20040;-72
2023/08/30 02:36:13;;;;;;;3.28;2.25;;;14.30;99.90;;;;;;4898700;29;20110;-72
2023/08/30 02:38:39;;;;;;;3.88;2.08;;;14.30;99.90;;;;;;4899387;29;20103;-72
2023/08/30 02:41:04;;;;;;;7.25;2.08;;;14.20;99.90;;;;;;4897467;29;20036;-72
2023/08/30 02:43:30;;;;;;;3.92;2.20;;;14.20;99.90;;;;;;4895408;29;20036;-72
2023/08/30 02:45:56;;;;;;;3.28;2.15;;;14.20;99.90;;;;;;4898386;29;20040;-72
2023/08/30 02:48:21;;;;;;;4.00;2.25;;;14.20;99.90;;;;;;4900213;29;20048;-72
2023/08/30 02:50:47;;;;;;;4.28;2.53;;;14.20;99.90;;;;;;4895308;29;20032;-72
2023/08/30 02:53:13;;;;;;;3.28;2.25;;;14.20;99.90;;;;;;4896603;29;20099;-72
2023/08/30 02:55:38;;;;;;;3.47;2.15;;;14.20;99.90;;;;;;4896691;29;20208;-72
2023/08/30 02:58:04;;;;;;;4.97;2.50;;;14.20;99.90;;;;;;4903837;29;20066;-72
2023/08/30 03:00:30;;;;;;;3.20;2.47;;;14.30;99.90;;;;;;4900772;29;20066;-72
2023/08/30 03:02:55;;;;;;;5.00;2.70;;;14.20;99.90;;;;;;4903390;29;20138;-72
2023/08/30 03:05:21;;;;;;;6.15;2.47;;;14.20;99.90;;;;;;4901681;29;20039;-72
2023/08/30 03:07:46;;;;;;;3.97;2.40;;;14.10;99.90;;;;;;4902136;29;20032;-72
2023/08/30 03:10:12;;;;;;;3.58;2.40;;;14.00;99.90;;;;;;4899783;29;20066;-72
2023/08/30 03:12:38;;;;;;;4.03;2.60;;;13.90;99.90;;;;;;4900938;29;20091;-72
2023/08/30 03:15:04;;;;;;;7.10;2.92;;;13.80;99.90;;;;;;4902928;29;20596;-71
2023/08/30 03:17:30;;;;;;;5.75;2.40;;;13.70;99.90;;;;;;4902503;29;20416;-71
2023/08/30 03:19:56;;;;;;;4.35;3.00;;;13.60;99.90;;;;;;4900578;29;20548;-72
2023/08/30 03:22:22;;;;;;;4.15;2.72;;;13.50;99.90;;;;;;4900876;29;20028;-72
2023/08/30 03:24:49;;;;;;;4.55;2.90;;;13.30;99.90;;;;;;4902432;29;20472;-71
2023/08/30 03:27:15;;;;;;;3.95;2.60;;;13.20;99.90;;;;;;4901424;29;20036;-72
2023/08/30 03:29:41;;;;;;;4.68;2.50;;;13.20;99.90;;;;;;4901020;29;20452;-71
2023/08/30 03:32:07;;;;;;;7.05;2.78;;;13.00;99.90;;;;;;4903213;29;20031;-72
2023/08/30 03:34:32;;;;;;;4.00;2.45;;;12.90;99.90;;;;;;4901715;29;20058;-72
2023/08/30 03:36:58;;;;;;;6.82;2.72;;;12.90;99.90;;;;;;4896510;29;20484;-72
2023/08/30 03:39:24;;;;;;;4.00;2.65;;;12.70;99.90;;;;;;4900296;29;20138;-72
2023/08/30 03:41:50;;;;;;;6.00;2.80;;;12.60;99.90;;;;;;4898719;29;20588;-72
2023/08/30 03:44:16;;;;;;;4.65;2.72;;;12.60;99.90;;;;;;4899446;29;20368;-71
2023/08/30 03:46:41;;;;;;;5.38;2.88;;;12.50;99.90;;;;;;4901957;29;20050;-71
2023/08/30 03:49:07;;;;;;;5.18;3.10;;;12.40;99.90;;;;;;4901219;29;20120;-71
2023/08/30 03:51:33;;;;;;;8.80;3.47;;;12.50;99.90;;;;;;4900667;29;20036;-72
2023/08/30 03:53:58;;;;;;;5.70;3.00;;;12.40;99.90;;;;;;4899602;29;20041;-72
2023/08/30 03:56:24;;;;;;;7.82;3.70;;;12.50;99.90;;;;;;4901506;29;20466;-72
2023/08/30 03:58:49;;;;;;;4.35;2.83;;;12.50;99.90;;;;;;4901092;29;20055;-71
2023/08/30 04:01:15;;;;;;;7.95;3.10;;;12.50;99.90;;;;;;4900951;29;20036;-72
2023/08/30 04:03:41;;;;;;;8.45;4.10;;;12.50;99.90;;;;;;4900390;29;20036;-72
2023/08/30 04:06:06;;;;;;;6.97;4.10;;;12.60;99.90;;;;;;4898058;29;20032;-72
2023/08/30 04:08:32;;;;;;;9.27;5.80;;;12.60;99.90;;;;;;4901871;29;20036;-72
2023/08/30 04:10:58;;;;;;;16.02;7.88;;;12.60;99.90;;;;;;4899736;29;20870;-72
2023/08/30 04:13:24;;;;;;;11.82;7.55;;;12.60;99.90;;;;;;4901843;29;20068;-72
2023/08/30 04:15:49;;;;;;;15.23;8.10;;;12.70;99.90;;;;;;4897606;29;20028;-72
2023/08/30 04:18:15;;;;;;;13.75;8.70;;;12.70;99.90;;;;;;4898183;29;20032;-72
2023/08/30 04:20:45;;;;;;;13.65;8.73;;;12.70;99.90;;;;;;4897054;29;20056;-72
2023/08/30 04:23:10;;;;;;;15.00;8.63;;;12.80;99.90;;;;;;4901694;29;20036;-71
2023/08/30 04:25:37;;;;;;;12.07;7.65;;;12.70;99.90;;;;;;4896546;29;20045;-72
2023/08/30 04:28:03;;;;;;;12.68;8.07;;;12.70;99.90;;;;;;4894856;29;20032;-71
2023/08/30 04:30:28;;;;;;;12.07;7.97;;;12.70;99.90;;;;;;4899005;29;20029;-72
2023/08/30 04:32:54;;;;;;;18.63;8.52;;;12.70;99.90;;;;;;4899613;29;20034;-71
2023/08/30 04:35:20;;;;;;;12.45;8.30;;;12.70;99.90;;;;;;4890602;29;20040;-72
2023/08/30 04:37:48;;;;;;;13.77;8.18;;;12.60;99.90;;;;;;4891802;29;20201;-72
2023/08/30 04:40:14;;;;;;;12.73;8.00;;;12.60;99.90;;;;;;4895856;29;20620;-71
2023/08/30 04:42:40;;;;;;;10.82;7.75;;;12.50;99.90;;;;;;4901864;29;20040;-71
2023/08/30 04:45:06;;;;;;;12.55;8.05;;;12.50;99.90;;;;;;4899209;29;21040;-71
2023/08/30 04:47:33;;;;;;;13.43;7.18;;;12.30;99.90;;;;;;4901288;29;20095;-71
2023/08/30 04:49:59;;;;;;;11.52;7.95;;;12.20;99.90;;;;;;4902409;29;20412;-72
2023/08/30 04:52:25;;;;;;;16.20;8.15;;;12.20;99.90;;;;;;4900147;29;20036;-72
2023/08/30 04:54:51;;;;;;;13.73;8.13;;;12.10;99.90;;;;;;4900114;29;20032;-71
2023/08/30 04:57:17;;;;;;;13.55;7.45;;;12.00;99.90;;;;;;4900967;29;20524;-72
2023/08/30 04:59:46;;;;;;;13.02;8.50;;;11.90;99.90;;;;;;4900634;29;20068;-71
2023/08/30 05:02:12;;;;;;;16.35;8.68;;;11.80;99.90;;;;;;4899910;29;20066;-72
2023/08/30 05:04:37;;;;;;;14.90;8.30;;;11.80;99.90;;;;;;4897427;29;20066;-71
2023/08/30 05:07:04;;;;;;;14.60;8.65;;;11.70;99.90;;;;;;4897749;29;20048;-72
2023/08/30 05:09:34;;;;;;;15.50;7.90;;;11.70;99.90;;;;;;4899904;29;20028;-72
2023/08/30 05:12:00;;;;;;;10.77;7.28;;;11.60;99.90;;;;;;4901211;29;20058;-71
2023/08/30 05:14:26;;;;;;;11.45;7.22;;;11.60;99.90;;;;;;4900328;29;20024;-71
2023/08/30 05:16:51;;;;;;;13.85;8.10;;;11.50;99.90;;;;;;4901164;29;20031;-71
2023/08/30 05:19:17;;;;;;;15.68;8.68;;;11.50;99.90;;;;;;4896847;29;20092;-71
2023/08/30 05:21:43;;;;;;;16.70;9.02;;;11.50;99.90;;;;;;4901522;29;20028;-71
2023/08/30 05:24:10;;;;;;;16.33;9.43;;;11.40;99.90;;;;;;4899632;29;20156;-72
2023/08/30 05:26:36;;;;;;;14.70;8.93;;;11.40;99.90;;;;;;4898892;29;20213;-72
2023/08/30 05:29:02;;;;;;;13.07;9.02;;;11.40;99.90;;;;;;4897146;29;20032;-72
2023/08/30 05:31:27;;;;;;;15.48;8.38;;;11.40;99.90;;;;;;4897319;29;20025;-71
2023/08/30 05:33:53;;;;;;;12.77;8.43;;;11.40;99.90;;;;;;4884437;29;20039;-72
2023/08/30 05:36:19;;;;;;;12.80;7.93;;;11.40;99.90;;;;;;4892595;29;20036;-72
2023/08/30 05:38:44;;;;;;;13.18;7.95;;;11.40;99.90;;;;;;4898567;29;21648;-72
2023/08/30 05:41:10;;;;;;;13.85;7.97;;;11.40;99.90;;;;;;4898661;29;20032;-71
2023/08/30 05:43:35;;;;;;;12.77;7.97;;;11.50;99.90;;;;;;4903785;29;20154;-72
2023/08/30 05:46:02;;;;;;;15.98;9.10;;;11.50;99.90;;;;;;4900324;29;20044;-71
2023/08/30 05:48:32;;;;;;;16.83;9.57;;;11.60;99.90;;;;;;4901716;29;20408;-71
2023/08/30 05:50:58;;;;;;;14.15;8.68;;;11.60;99.90;;;;;;4904552;29;20400;-72
2023/08/30 05:53:23;;;;;;;17.38;9.48;;;11.60;99.90;;;;;;4897659;29;20028;-72
2023/08/30 05:55:49;;;;;;;13.45;8.70;;;11.60;99.90;;;;;;4900034;29;20036;-71
2023/08/30 05:58:15;;;;;;;26.58;13.52;;;11.70;99.90;;;;;;4896377;29;20020;-71
2023/08/30 06:00:41;;;;;;;18.83;11.00;;;11.70;99.90;;;;;;4894380;29;20399;-72
2023/08/30 06:03:07;;;;;;;15.88;8.80;;;11.80;99.90;;;;;;4900462;29;20078;-72
2023/08/30 06:05:34;;;;;;;12.32;7.38;;;11.90;99.90;;;;;;4891435;29;20123;-72
2023/08/30 06:07:59;;;;;;;11.57;6.82;;;11.90;99.90;;;;;;4898492;29;20060;-72
2023/08/30 06:10:25;;;;;;;14.27;8.48;;;12.10;99.90;;;;;;4899004;29;20448;-71
2023/08/30 06:12:50;;;;;;;10.68;5.72;;;12.20;99.90;;;;;;4894746;29;20048;-71
2023/08/30 06:15:16;;;;;;;8.63;4.53;;;12.40;99.90;;;;;;4896080;29;20515;-72
2023/08/30 06:17:42;;;;;;;8.07;4.57;;;12.60;99.90;;;;;;4894793;29;20520;-71
2023/08/30 06:20:08;;;;;;;9.30;4.25;;;12.80;99.90;;;;;;4895574;29;20094;-71
2023/08/30 06:22:33;;;;;;;6.63;4.28;;;12.90;99.90;;;;;;4897495;29;20773;-72
2023/08/30 06:24:59;;;;;;;9.93;4.07;;;13.10;99.90;;;;;;4906582;29;20032;-72
2023/08/30 06:27:24;;;;;;;22.55;12.90;;;13.10;99.90;;;;;;4884442;29;20131;-72
2023/08/30 06:29:50;;;;;;;9.95;4.10;;;13.20;99.90;;;;;;4883728;29;20527;-74
2023/08/30 06:32:16;;;;;;;7.65;3.35;;;13.20;99.90;;;;;;4888461;29;20631;-74
2023/08/30 06:34:42;;;;;;;8.27;3.42;;;13.20;99.90;;;;;;4889242;29;20032;-72
2023/08/30 06:37:08;;;;;;;7.28;3.42;;;13.30;99.90;;;;;;4883697;29;20131;-77
2023/08/30 06:39:35;;;;;;;4.40;3.20;;;13.40;99.90;;;;;;4888553;29;20059;-73
2023/08/30 06:42:01;;;;;;;6.25;2.80;;;13.40;99.90;;;;;;4898403;29;20056;-73
2023/08/30 06:44:27;;;;;;;9.40;5.97;;;13.50;99.90;;;;;;4898218;29;20045;-73
2023/08/30 06:46:52;;;;;;;6.00;3.08;;;13.70;99.90;;;;;;4887296;29;20049;-71
2023/08/30 06:49:18;;;;;;;8.70;4.30;;;13.70;99.90;;;;;;4889423;29;20552;-73
2023/08/30 06:51:43;;;;;;;9.38;4.15;;;13.80;99.90;;;;;;4891083;29;20043;-74
2023/08/30 06:54:09;;;;;;;7.38;4.15;;;13.80;99.90;;;;;;4895127;29;20055;-76
2023/08/30 06:56:35;;;;;;;7.43;4.10;;;13.90;99.90;;;;;;4912416;29;20575;-74
2023/08/30 06:59:00;;;;;;;28.50;19.20;;;13.90;99.90;;;;;;4898332;29;20024;-73
2023/08/30 07:01:26;;;;;;;8.43;3.70;;;14.00;99.90;;;;;;4902086;29;20759;-75
2023/08/30 07:03:51;;;;;;;7.20;3.17;;;14.00;99.90;;;;;;4895707;29;20079;-74
2023/08/30 07:06:17;;;;;;;5.55;2.40;;;14.20;99.90;;;;;;4900786;29;20044;-75
2023/08/30 07:08:43;;;;;;;7.00;2.50;;;14.30;99.90;;;;;;4895161;29;20050;-75
2023/08/30 07:11:09;;;;;;;11.02;3.17;;;14.40;99.90;;;;;;4897749;29;20031;-74
2023/08/30 07:13:34;;;;;;;5.85;1.70;;;14.50;99.90;;;;;;4900683;29;20084;-73
2023/08/30 07:16:00;;;;;;;8.25;2.00;;;14.60;99.90;;;;;;4902516;29;20032;-71
2023/08/30 07:18:25;;;;;;;8.30;2.30;;;14.60;99.90;;;;;;4898523;29;20111;-72
2023/08/30 07:20:51;;;;;;;9.80;2.17;;;14.70;99.90;;;;;;4896211;29;20040;-72
2023/08/30 07:23:17;;;;;;;7.65;2.08;;;14.80;99.90;;;;;;4902091;29;20059;-74
2023/08/30 07:25:42;;;;;;;4.85;1.65;;;14.80;99.90;;;;;;4899509;29;20035;-72
2023/08/30 07:28:08;;;;;;;6.13;1.90;;;14.80;99.90;;;;;;4901007;29;21305;-73
2023/08/30 07:30:35;;;;;;;4.63;2.05;;;14.90;99.90;;;;;;4903398;29;20040;-72
2023/08/30 07:33:00;;;;;;;7.10;2.00;;;14.90;99.90;;;;;;4903572;29;20409;-74
2023/08/30 07:35:26;;;;;;;7.03;1.73;;;15.00;99.90;;;;;;4897810;29;20035;-71
2023/08/30 07:37:52;;;;;;;7.30;2.10;;;15.10;99.90;;;;;;4895313;29;20119;-72
2023/08/30 07:40:17;;;;;;;6.90;1.70;;;15.10;99.90;;;;;;4895475;29;20047;-71
2023/08/30 07:42:43;;;;;;;4.57;1.63;;;15.10;99.90;;;;;;4895086;29;20028;-71
2023/08/30 07:45:09;;;;;;;8.02;2.08;;;15.20;99.90;;;;;;4894478;29;20024;-77
2023/08/30 07:47:35;;;;;;;8.13;1.90;;;15.80;99.90;;;;;;4892191;29;20050;-70
2023/08/30 07:50:00;;;;;;;5.80;1.65;;;16.90;99.90;;;;;;4896553;29;20039;-70
2023/08/30 07:52:26;;;;;;;6.80;2.10;;;18.80;99.90;;;;;;4558746;29;9999946;-70
2023/08/30 07:54:51;;;;;;;6.03;1.85;;;21.80;99.90;;;;;;4897741;29;20028;-70
2023/08/30 07:57:17;;;;;;;3.63;1.50;;;24.70;96.90;;;;;;4895004;29;20047;-70
2023/08/30 07:59:42;;;;;;;7.13;1.80;;;27.30;86.50;;;;;;4895660;29;20028;-69
2023/08/30 08:02:08;;;;;;;4.45;1.27;;;29.30;73.10;;;;;;4892694;29;20887;-70
2023/08/30 08:04:35;;;;;;;4.18;1.50;;;31.00;63.10;;;;;;4897643;29;20035;-69
2023/08/30 08:07:01;;;;;;;6.57;1.50;;;32.10;56.40;;;;;;4897390;29;20095;-70
2023/08/30 08:09:27;;;;;;;5.07;1.75;;;33.20;53.30;;;;;;4899016;29;20142;-69
2023/08/30 08:11:53;;;;;;;6.28;1.67;;;33.90;50.60;;;;;;4895237;29;20171;-70
2023/08/30 08:14:18;;;;;;;5.55;1.52;;;34.10;49.00;;;;;;4893465;29;20035;-69
2023/08/30 08:16:44;;;;;;;3.72;1.33;;;33.40;47.60;;;;;;4898478;29;20046;-70
2023/08/30 08:19:09;;;;;;;4.60;1.40;;;33.50;48.70;;;;;;4895937;29;20028;-70
2023/08/30 08:21:35;;;;;;;3.28;1.20;;;34.30;47.10;;;;;;4896499;29;20040;-70
2023/08/30 08:24:01;;;;;;;6.75;1.48;;;34.90;46.40;;;;;;4895763;29;20099;-70
2023/08/30 08:26:27;;;;;;;5.03;1.40;;;35.40;46.70;;;;;;4892199;29;20349;-70
2023/08/30 08:28:56;;;;;;;5.72;1.60;;;35.80;43.90;;;;;;4893439;29;20257;-71
2023/08/30 08:31:22;;;;;;;10.82;3.40;;;36.10;43.70;;;;;;4888668;29;20112;-71
2023/08/30 08:33:52;;;;;;;4.63;1.50;;;36.50;42.20;;;;;;4896419;29;20118;-70
2023/08/30 08:36:18;;;;;;;7.68;1.55;;;36.80;42.90;;;;;;4899304;29;20068;-70
2023/08/30 08:38:44;;;;;;;5.55;1.45;;;37.20;41.00;;;;;;4887755;29;20279;-71
2023/08/30 08:41:14;;;;;;;5.05;1.40;;;37.70;41.80;;;;;;4891585;29;20032;-70
2023/08/30 08:43:42;;;;;;;5.00;1.85;;;38.00;41.90;;;;;;4898430;29;20032;-71
2023/08/30 08:46:11;;;;;;;4.68;1.30;;;38.20;38.90;;;;;;4882009;29;20056;-70
2023/08/30 08:48:44;;;;;;;4.15;1.27;;;38.40;39.90;;;;;;4879891;29;20057;-70
2023/08/30 08:51:10;;;;;;;5.13;1.80;;;38.70;39.50;;;;;;4893813;29;20232;-70
2023/08/30 08:53:37;;;;;;;4.75;1.50;;;39.10;40.00;;;;;;4896120;29;20228;-71
2023/08/30 08:56:04;;;;;;;5.30;1.55;;;39.70;36.80;;;;;;4895202;29;20033;-71
2023/08/30 08:58:30;;;;;;;5.13;1.90;;;39.50;36.50;;;;;;4885322;29;20276;-71
2023/08/30 09:00:56;;;;;;;6.15;1.80;;;39.70;35.50;;;;;;4890918;29;20063;-71
2023/08/30 09:03:22;;;;;;;4.35;1.50;;;39.70;36.90;;;;;;4891895;29;20443;-71
2023/08/30 09:05:49;;;;;;;6.03;1.48;;;39.70;37.30;;;;;;4893534;29;20072;-71
2023/08/30 09:08:15;;;;;;;3.90;1.50;;;39.00;37.30;;;;;;4887143;29;20028;-71
2023/08/30 09:10:41;;;;;;;5.18;1.48;;;39.30;36.50;;;;;;4893047;29;20047;-71
2023/08/30 09:13:06;;;;;;;6.25;1.58;;;39.50;36.10;;;;;;4895638;29;20028;-71
2023/08/30 09:15:33;;;;;;;3.55;1.50;;;39.30;37.50;;;;;;4883939;29;20028;-71
2023/08/30 09:17:59;;;;;;;5.95;1.60;;;38.30;37.00;;;;;;4906746;29;20281;-71
2023/08/30 09:20:25;;;;;;;4.75;1.60;;;37.50;37.40;;;;;;4887337;29;20365;-71
2023/08/30 09:22:50;;;;;;;5.43;1.50;;;37.50;38.40;;;;;;4891774;29;20035;-71
2023/08/30 09:25:29;;;;;;;6.40;1.67;;;37.30;38.70;;;;;;4897959;29;20143;-71
2023/08/30 09:28:01;;;;;;;4.45;1.67;;;37.50;38.70;;;;;;4896348;29;20032;-71
2023/08/30 09:30:27;;;;;;;6.97;1.65;;;36.30;39.70;;;;;;4900669;29;20119;-71
2023/08/30 09:32:53;;;;;;;4.85;1.25;;;34.20;39.60;;;;;;4891049;29;20123;-71
2023/08/30 09:35:19;;;;;;;4.53;1.30;;;31.80;44.10;;;;;;4896037;29;20265;-71
2023/08/30 09:37:45;;;;;;;3.70;1.23;;;30.40;47.60;;;;;;4559111;29;9999923;-70
2023/08/30 09:40:11;;;;;;;4.03;1.20;;;29.30;48.80;;;;;;4900542;29;20039;-71
2023/08/30 09:42:43;;;;;;;5.72;1.52;;;29.20;49.70;;;;;;4897257;29;20137;-72
2023/08/30 09:45:38;;;;;;;6.07;1.45;;;29.70;49.80;;;;;;4898385;29;20106;-71
2023/08/30 09:48:05;;;;;;;4.85;1.35;;;30.90;48.70;;;;;;4890938;29;20052;-71
2023/08/30 09:50:35;;;;;;;4.72;1.45;;;33.30;45.00;;;;;;4896238;29;20027;-71
2023/08/30 09:53:09;;;;;;;8.00;1.33;;;35.60;44.20;;;;;;4896802;29;20067;-71
2023/08/30 09:55:35;;;;;;;4.32;1.38;;;35.90;39.90;;;;;;4893052;29;20291;-71
2023/08/30 09:58:05;;;;;;;4.05;1.20;;;35.00;42.80;;;;;;4888237;29;20042;-71
2023/08/30 10:00:33;;;;;;;4.03;1.40;;;35.60;43.00;;;;;;4894973;29;20032;-71
2023/08/30 10:03:00;;;;;;;5.25;1.23;;;34.90;40.40;;;;;;4890335;29;20031;-71
2023/08/30 10:05:26;;;;;;;5.47;1.30;;;34.60;40.70;;;;;;4902333;29;20092;-72
2023/08/30 10:07:53;;;;;;;3.38;1.05;;;33.80;40.90;;;;;;4897931;29;20396;-72
2023/08/30 10:10:20;;;;;;;3.22;1.10;;;33.90;42.70;;;;;;4898714;29;20157;-71
2023/08/30 10:12:47;;;;;;;6.30;1.45;;;34.60;41.30;;;;;;4896570;29;20515;-71
2023/08/30 10:15:13;;;;;;;6.22;1.10;;;36.00;38.70;;;;;;4913587;29;20047;-71
2023/08/30 10:17:43;;;;;;;8.30;1.30;;;37.20;37.40;;;;;;4897562;29;20032;-71
2023/08/30 10:20:09;;;;;;;4.55;1.02;;;37.40;37.50;;;;;;4901955;29;20040;-71
2023/08/30 10:22:37;;;;;;;3.45;1.15;;;37.10;37.50;;;;;;4900673;29;20126;-71
2023/08/30 10:25:08;;;;;;;4.38;1.17;;;36.80;37.60;;;;;;4896471;29;20099;-71
2023/08/30 10:27:36;;;;;;;4.40;0.90;;;36.70;38.10;;;;;;4894697;29;20040;-71
2023/08/30 10:30:04;;;;;;;2.13;0.88;;;37.70;37.70;;;;;;4899022;29;20052;-71
2023/08/30 10:32:31;;;;;;;3.47;1.08;;;39.00;37.10;;;;;;4901788;29;20131;-71
2023/08/30 10:35:04;;;;;;;3.50;1.08;;;40.50;36.30;;;;;;4894456;29;20111;-71
2023/08/30 10:37:30;;;;;;;3.53;1.05;;;41.40;36.10;;;;;;4895749;29;20377;-72
2023/08/30 10:40:05;;;;;;;4.75;1.27;;;41.90;34.40;;;;;;4884744;29;20092;-71
2023/08/30 10:42:32;;;;;;;3.47;1.00;;;42.70;32.80;;;;;;4898842;29;20444;-71
2023/08/30 10:45:04;;;;;;;3.60;1.02;;;43.60;33.50;;;;;;4901891;29;20176;-71
2023/08/30 10:47:38;;;;;;;4.03;1.20;;;43.00;31.80;;;;;;4899052;29;20539;-71
2023/08/30 10:50:11;;;;;;;2.65;0.80;;;41.80;31.30;;;;;;4896064;29;20024;-71
2023/08/30 10:52:36;;;;;;;3.63;1.10;;;39.30;32.20;;;;;;4899506;29;20108;-71
2023/08/30 10:55:12;;;;;;;3.03;0.90;;;36.50;36.20;;;;;;4898789;29;20653;-72
2023/08/30 10:57:41;;;;;;;2.70;1.00;;;33.80;39.30;;;;;;4900313;29;20032;-72
2023/08/30 11:00:09;;;;;;;1.63;0.60;;;31.50;41.90;;;;;;4893679;29;20365;-71
2023/08/30 11:02:36;;;;;;;3.70;0.77;;;29.80;43.90;;;;;;4897896;29;20036;-71
2023/08/30 11:05:04;;;;;;;5.30;1.00;;;28.80;46.70;;;;;;4896441;29;20560;-72
2023/08/30 11:07:30;;;;;;;2.05;0.80;;;28.30;48.70;;;;;;4880616;29;20040;-71
2023/08/30 11:09:56;;;;;;;4.40;1.00;;;28.00;47.90;;;;;;4894205;29;20506;-71
2023/08/30 11:12:22;;;;;;;1.23;0.70;;;27.60;49.20;;;;;;4895684;29;20409;-71
2023/08/30 11:14:48;;;;;;;2.88;0.80;;;27.60;49.90;;;;;;4897906;29;20036;-71
2023/08/30 11:17:17;;;;;;;2.15;0.73;;;27.50;51.70;;;;;;4899968;29;20032;-71
2023/08/30 11:19:42;;;;;;;2.35;0.70;;;27.00;52.20;;;;;;4895291;29;20110;-71
2023/08/30 11:22:08;;;;;;;2.50;1.02;;;26.80;51.70;;;;;;4899905;29;20024;-71
2023/08/30 11:24:34;;;;;;;3.15;0.80;;;26.70;49.20;;;;;;4896199;29;20118;-71
2023/08/30 11:27:04;;;;;;;3.83;0.70;;;26.70;51.90;;;;;;4674437;29;10000352;-71
2023/08/30 11:29:30;;;;;;;2.47;1.10;;;26.60;53.60;;;;;;4893782;29;20344;-71
2023/08/30 11:31:55;;;;;;;3.15;0.80;;;26.80;51.10;;;;;;4896443;29;20043;-71
2023/08/30 11:34:24;;;;;;;2.83;0.95;;;26.80;49.80;;;;;;4893493;29;20029;-71
2023/08/30 11:36:50;;;;;;;2.30;0.88;;;26.70;51.10;;;;;;4894648;29;20123;-71
2023/08/30 11:39:16;;;;;;;4.28;1.10;;;26.10;51.70;;;;;;4897004;29;20487;-71
2023/08/30 11:41:43;;;;;;;4.68;0.98;;;25.90;54.60;;;;;;4878958;29;20364;-71
2023/08/30 11:44:09;;;;;;;2.30;1.02;;;25.30;54.10;;;;;;4896530;29;20032;-71
2023/08/30 11:46:34;;;;;;;3.60;0.90;;;24.60;55.80;;;;;;4893281;29;20075;-71
2023/08/30 11:49:00;;;;;;;6.28;1.20;;;24.10;56.10;;;;;;4889973;29;20040;-71
2023/08/30 11:51:26;;;;;;;5.05;1.20;;;23.50;58.90;;;;;;4896535;29;20028;-71
2023/08/30 11:53:54;;;;;;;3.20;0.90;;;23.30;62.30;;;;;;4893842;29;20291;-71
2023/08/30 11:56:20;;;;;;;3.90;1.02;;;23.10;67.00;;;;;;4889385;29;20542;-71
2023/08/30 11:58:45;;;;;;;3.97;1.17;;;23.10;66.60;;;;;;4894633;29;20040;-71
2023/08/30 12:01:12;;;;;;;4.32;0.98;;;23.20;69.60;;;;;;4892321;29;20038;-71
2023/08/30 12:03:38;;;;;;;2.60;0.90;;;23.40;74.80;;;;;;4896373;29;20107;-71
2023/08/30 12:06:10;;;;;;;3.75;1.10;;;24.10;70.20;;;;;;4895283;29;20248;-71
2023/08/30 12:08:36;;;;;;;5.55;0.90;;;25.10;71.80;;;;;;4900515;29;20122;-71
2023/08/30 12:11:01;;;;;;;5.03;1.00;;;25.30;61.90;;;;;;4896147;29;20188;-71
2023/08/30 12:13:29;;;;;;;1.83;0.80;;;25.00;60.60;;;;;;4898145;29;20483;-71
2023/08/30 12:15:56;;;;;;;3.63;1.02;;;24.60;63.60;;;;;;4895376;29;20024;-71
2023/08/30 12:18:28;;;;;;;2.67;1.00;;;24.20;64.20;;;;;;4901989;29;20036;-71
2023/08/30 12:21:01;;;;;;;4.00;1.15;;;23.80;62.50;;;;;;4901571;29;20051;-71
2023/08/30 12:23:30;;;;;;;3.08;1.10;;;23.30;64.50;;;;;;4892832;29;20028;-71
2023/08/30 12:26:07;;;;;;;3.00;1.02;;;22.70;67.40;;;;;;4888934;29;20036;-71
2023/08/30 12:28:35;;;;;;;5.32;1.50;;;22.30;76.10;;;;;;4891492;29;20036;-71
2023/08/30 12:31:01;;;;;;;2.67;0.95;;;21.90;75.60;;;;;;4893824;29;20059;-72
2023/08/30 12:33:28;;;;;;;3.20;1.00;;;21.70;88.70;;;;;;4896630;29;20028;-71
2023/08/30 12:35:54;;;;;;;4.20;1.00;;;21.40;93.10;;;;;;4894141;29;20051;-71
2023/08/30 12:38:21;;;;;;;3.83;1.23;;;21.30;93.80;;;;;;4886729;29;20362;-71
2023/08/30 12:40:48;;;;;;;2.45;0.82;;;21.40;94.80;;;;;;4899721;29;20032;-71
2023/08/30 12:43:15;;;;;;;2.63;1.45;;;21.80;93.10;;;;;;4896730;29;20043;-71